createdAt,value
2019-03-21T00:00:04.205Z,1036.44
2019-03-21T00:10:03.725Z,1036.35
2019-03-21T00:20:04.365Z,1036.30
2019-03-21T00:30:03.837Z,1036.22
2019-03-21T00:40:03.406Z,1036.24
2019-03-21T00:50:03.122Z,1036.24
2019-03-21T01:00:04.250Z,1036.16
2019-03-21T01:10:03.393Z,1036.15
2019-03-21T01:20:03.367Z,1036.09
2019-03-21T01:30:03.924Z,1035.96
2019-03-21T01:40:03.247Z,1035.87
2019-03-21T01:50:03.152Z,1035.76
2019-03-21T02:00:04.395Z,1035.76
2019-03-21T02:10:03.068Z,1035.76
2019-03-21T02:20:03.248Z,1035.80
2019-03-21T02:30:03.735Z,1035.89
2019-03-21T02:40:03.958Z,1035.85
2019-03-21T02:50:03.637Z,1035.85
2019-03-21T03:00:04.073Z,1035.79
2019-03-21T03:10:03.417Z,1035.75
2019-03-21T03:20:03.636Z,1035.77
2019-03-21T03:30:04.469Z,1035.82
2019-03-21T03:40:04.107Z,1035.79
2019-03-21T03:50:03.719Z,1035.91
2019-03-21T04:00:04.155Z,1035.86
2019-03-21T04:10:03.611Z,1035.83
2019-03-21T04:20:03.385Z,1035.79
2019-03-21T04:30:04.176Z,1035.74
2019-03-21T04:40:04.213Z,1035.55
2019-03-21T04:50:03.703Z,1035.53
2019-03-21T05:00:05.009Z,1035.36
2019-03-21T05:10:03.657Z,1035.14
2019-03-21T05:30:04.076Z,1034.98
2019-03-21T05:40:03.692Z,1035.02
2019-03-21T05:50:03.400Z,1035.12
2019-03-21T06:00:04.570Z,1035.26
2019-03-21T06:10:03.287Z,1035.39
2019-03-21T06:20:04.928Z,1035.44
2019-03-21T06:30:03.671Z,1035.53
2019-03-21T06:40:03.601Z,1035.50
2019-03-21T06:50:03.376Z,1035.58
2019-03-21T07:00:04.325Z,1035.75
2019-03-21T07:10:03.157Z,1035.74
2019-03-21T07:20:03.121Z,1035.71
2019-03-21T07:30:04.266Z,1035.70
2019-03-21T07:40:03.837Z,1035.69
2019-03-21T07:50:03.276Z,1035.78
2019-03-21T08:00:04.205Z,1035.77
2019-03-21T08:10:03.054Z,1035.69
2019-03-21T08:20:03.221Z,1035.66
2019-03-21T08:30:04.051Z,1035.72
2019-03-21T08:40:03.968Z,1035.64
2019-03-21T08:50:03.087Z,1035.57
2019-03-21T09:00:03.945Z,1035.58
2019-03-21T09:10:02.931Z,1035.46
2019-03-21T09:20:03.690Z,1035.50
2019-03-21T09:30:09.862Z,1035.25
2019-03-21T09:40:03.267Z,1035.39
2019-03-21T09:50:03.786Z,1035.32
2019-03-21T10:00:03.735Z,1035.31
2019-03-21T10:10:03.508Z,1035.23
2019-03-21T10:20:03.797Z,1035.18
2019-03-21T10:30:03.588Z,1035.17
2019-03-21T10:40:03.695Z,1035.08
2019-03-21T10:50:03.327Z,1035.00
2019-03-21T11:00:04.291Z,1034.97
2019-03-21T11:10:03.234Z,1034.81
2019-03-21T11:20:03.489Z,1034.76
2019-03-21T11:30:16.401Z,1034.71
2019-03-21T11:40:03.514Z,1034.60
2019-03-21T11:50:03.003Z,1034.42
2019-03-21T12:00:04.095Z,1034.28
2019-03-21T12:10:03.146Z,1034.02
2019-03-21T12:20:03.100Z,1033.93
2019-03-21T12:30:04.555Z,1033.83
2019-03-21T12:40:03.720Z,1033.70
2019-03-21T12:50:03.197Z,1033.54
2019-03-21T13:00:04.801Z,1033.29
2019-03-21T13:10:03.463Z,1033.06
2019-03-21T13:20:04.210Z,1033.19
2019-03-21T13:30:04.622Z,1033.09
2019-03-21T13:40:03.636Z,1033.00
2019-03-21T13:50:04.588Z,1032.89
2019-03-21T14:00:04.693Z,1032.82
2019-03-21T14:10:03.510Z,1032.78
2019-03-21T14:20:03.530Z,1032.65
2019-03-21T14:30:04.259Z,1032.63
2019-03-21T14:40:03.370Z,1032.66
2019-03-21T14:50:03.256Z,1032.66
2019-03-21T15:00:04.492Z,1032.57
2019-03-21T15:10:03.656Z,1032.57
2019-03-21T15:20:03.668Z,1032.51
2019-03-21T15:30:04.504Z,1032.57
2019-03-21T15:40:03.864Z,1032.56
2019-03-21T15:50:03.525Z,1032.54
2019-03-21T16:00:04.474Z,1032.48
2019-03-21T16:10:02.907Z,1032.46
2019-03-21T16:20:03.981Z,1032.59
2019-03-21T16:30:04.677Z,1032.59
2019-03-21T16:40:02.873Z,1032.61
2019-03-21T16:50:03.753Z,1032.56
2019-03-21T17:00:03.813Z,1032.59
2019-03-21T17:10:03.562Z,1032.76
2019-03-21T17:20:04.599Z,1032.78
2019-03-21T17:30:04.170Z,1032.82
2019-03-21T17:40:02.820Z,1032.94
2019-03-21T17:50:03.682Z,1033.00
2019-03-21T18:00:03.459Z,1032.99
2019-03-21T18:10:03.241Z,1033.02
2019-03-21T18:20:03.242Z,1033.12
2019-03-21T18:30:04.076Z,1033.28
2019-03-21T18:40:03.667Z,1033.30
2019-03-21T18:50:03.751Z,1033.33
2019-03-21T19:00:04.092Z,1033.43
2019-03-21T19:10:02.831Z,1033.44
2019-03-21T19:20:03.252Z,1033.41
2019-03-21T19:30:06.847Z,1033.31
2019-03-21T19:40:04.077Z,1033.25
2019-03-21T19:50:02.958Z,1033.26
2019-03-21T20:00:05.390Z,1033.28
2019-03-21T20:10:08.582Z,1033.20
2019-03-21T20:20:03.614Z,1033.33
2019-03-21T20:30:04.115Z,1033.40
2019-03-21T20:40:04.334Z,1033.22
2019-03-21T20:50:03.273Z,1033.26
2019-03-21T21:00:04.112Z,1033.29
2019-03-21T21:10:08.441Z,1033.23
2019-03-21T21:20:03.442Z,1033.15
2019-03-21T21:30:04.503Z,1033.18
2019-03-21T21:40:03.116Z,1033.25
2019-03-21T21:50:03.343Z,1033.27
2019-03-21T22:00:04.483Z,1033.21
2019-03-21T22:10:03.747Z,1033.19
2019-03-21T22:20:03.656Z,1033.18
2019-03-21T22:30:05.891Z,1033.15
2019-03-21T22:40:03.254Z,1033.10
2019-03-21T22:50:03.759Z,1033.04
2019-03-21T23:00:03.876Z,1033.06
2019-03-21T23:10:03.338Z,1032.97
2019-03-21T23:20:03.342Z,1032.92
2019-03-21T23:30:04.142Z,1032.88
2019-03-21T23:40:02.862Z,1032.96
2019-03-21T23:50:03.919Z,1032.83
